sensor_id;sensor_type;location;lat;lon;timestamp;pressure;altitude;pressure_sealevel;temperature;humidity
76519;BME280;67029;51.054;13.798;2023-08-01T00:01:20;99175.03;;;23.64;47.99
76519;BME280;67029;51.054;13.798;2023-08-01T00:03:50;99166.36;;;23.59;48.07
76519;BME280;67029;51.054;13.798;2023-08-01T00:06:20;99162.80;;;23.50;48.27
76519;BME280;67029;51.054;13.798;2023-08-01T00:08:50;99155.89;;;23.50;48.35
76519;BME280;67029;51.054;13.798;2023-08-01T00:11:20;99153.14;;;23.53;48.35
76519;BME280;67029;51.054;13.798;2023-08-01T00:13:50;99139.86;;;23.55;48.35
76519;BME280;67029;51.054;13.798;2023-08-01T00:16:20;99134.33;;;23.58;48.32
76519;BME280;67029;51.054;13.798;2023-08-01T00:18:50;99125.77;;;23.51;48.48
76519;BME280;67029;51.054;13.798;2023-08-01T00:21:20;99121.12;;;23.41;48.71
76519;BME280;67029;51.054;13.798;2023-08-01T00:23:50;99116.16;;;23.36;48.83
76519;BME280;67029;51.054;13.798;2023-08-01T00:26:21;99114.55;;;23.30;48.98
76519;BME280;67029;51.054;13.798;2023-08-01T00:28:50;99110.42;;;23.26;49.11
76519;BME280;67029;51.054;13.798;2023-08-01T00:31:20;99111.16;;;23.29;49.05
76519;BME280;67029;51.054;13.798;2023-08-01T00:33:50;99105.30;;;23.32;49.05
76519;BME280;67029;51.054;13.798;2023-08-01T00:36:21;99100.81;;;23.36;48.98
76519;BME280;67029;51.054;13.798;2023-08-01T00:38:51;99095.23;;;23.38;48.99
76519;BME280;67029;51.054;13.798;2023-08-01T00:41:21;99088.69;;;23.24;49.30
76519;BME280;67029;51.054;13.798;2023-08-01T00:43:51;99077.86;;;23.18;49.42
76519;BME280;67029;51.054;13.798;2023-08-01T00:46:21;99074.91;;;23.21;49.37
76519;BME280;67029;51.054;13.798;2023-08-01T00:48:52;99073.19;;;23.25;49.29
76519;BME280;67029;51.054;13.798;2023-08-01T00:51:21;99069.14;;;23.31;49.18
76519;BME280;67029;51.054;13.798;2023-08-01T00:53:51;99065.19;;;23.29;49.18
76519;BME280;67029;51.054;13.798;2023-08-01T00:56:22;99061.36;;;23.28;49.24
76519;BME280;67029;51.054;13.798;2023-08-01T00:58:52;99062.27;;;23.26;49.29
76519;BME280;67029;51.054;13.798;2023-08-01T01:01:22;99058.94;;;23.25;49.33
76519;BME280;67029;51.054;13.798;2023-08-01T01:03:52;99051.84;;;23.16;49.51
76519;BME280;67029;51.054;13.798;2023-08-01T01:06:32;99047.58;;;23.12;49.63
76519;BME280;67029;51.054;13.798;2023-08-01T01:08:53;99039.73;;;23.07;49.66
76519;BME280;67029;51.054;13.798;2023-08-01T01:11:23;99040.35;;;23.04;49.72
76519;BME280;67029;51.054;13.798;2023-08-01T01:13:53;99031.89;;;22.99;49.84
76519;BME280;67029;51.054;13.798;2023-08-01T01:16:23;99032.36;;;22.99;49.90
76519;BME280;67029;51.054;13.798;2023-08-01T01:18:53;99026.28;;;23.09;49.65
76519;BME280;67029;51.054;13.798;2023-08-01T01:21:23;99022.00;;;23.18;49.47
76519;BME280;67029;51.054;13.798;2023-08-01T01:23:54;99022.86;;;23.21;49.39
76519;BME280;67029;51.054;13.798;2023-08-01T01:26:23;99028.25;;;23.25;49.31
76519;BME280;67029;51.054;13.798;2023-08-01T01:28:55;99018.48;;;23.29;49.22
76519;BME280;67029;51.054;13.798;2023-08-01T01:31:25;99014.13;;;23.26;49.28
76519;BME280;67029;51.054;13.798;2023-08-01T01:33:57;99010.62;;;23.20;49.40
76519;BME280;67029;51.054;13.798;2023-08-01T01:36:26;99016.09;;;23.15;49.45
76519;BME280;67029;51.054;13.798;2023-08-01T01:38:56;99002.78;;;23.10;49.53
76519;BME280;67029;51.054;13.798;2023-08-01T01:41:26;99007.91;;;23.07;49.61
76519;BME280;67029;51.054;13.798;2023-08-01T01:43:56;99000.41;;;23.12;49.52
76519;BME280;67029;51.054;13.798;2023-08-01T01:46:26;99002.12;;;23.18;49.45
76519;BME280;67029;51.054;13.798;2023-08-01T01:48:56;98995.31;;;23.16;49.44
76519;BME280;67029;51.054;13.798;2023-08-01T01:51:26;98991.46;;;23.08;49.62
76519;BME280;67029;51.054;13.798;2023-08-01T01:53:56;98993.42;;;23.06;49.63
76519;BME280;67029;51.054;13.798;2023-08-01T01:56:27;98996.53;;;23.07;49.78
76519;BME280;67029;51.054;13.798;2023-08-01T01:58:56;98991.19;;;23.04;49.82
76519;BME280;67029;51.054;13.798;2023-08-01T02:01:27;98995.49;;;23.04;49.93
76519;BME280;67029;51.054;13.798;2023-08-01T02:03:57;98986.75;;;22.98;50.32
76519;BME280;67029;51.054;13.798;2023-08-01T02:06:27;98993.12;;;22.89;50.70
76519;BME280;67029;51.054;13.798;2023-08-01T02:08:57;98980.73;;;22.85;51.02
76519;BME280;67029;51.054;13.798;2023-08-01T02:11:29;98986.62;;;22.78;51.30
76519;BME280;67029;51.054;13.798;2023-08-01T02:13:57;98974.75;;;22.68;52.23
76519;BME280;67029;51.054;13.798;2023-08-01T02:16:27;98984.09;;;22.65;52.25
76519;BME280;67029;51.054;13.798;2023-08-01T02:18:57;98979.95;;;22.63;52.34
76519;BME280;67029;51.054;13.798;2023-08-01T02:21:27;98973.30;;;22.63;52.50
76519;BME280;67029;51.054;13.798;2023-08-01T02:23:57;98970.48;;;22.60;52.59
76519;BME280;67029;51.054;13.798;2023-08-01T02:26:27;98967.56;;;22.52;52.84
76519;BME280;67029;51.054;13.798;2023-08-01T02:28:57;98962.77;;;22.41;53.25
76519;BME280;67029;51.054;13.798;2023-08-01T02:31:27;98956.09;;;22.40;53.70
76519;BME280;67029;51.054;13.798;2023-08-01T02:33:57;98950.42;;;22.38;53.61
76519;BME280;67029;51.054;13.798;2023-08-01T02:36:27;98951.09;;;22.31;53.69
76519;BME280;67029;51.054;13.798;2023-08-01T02:38:57;98945.11;;;22.22;54.08
76519;BME280;67029;51.054;13.798;2023-08-01T02:41:27;98946.38;;;22.22;54.34
76519;BME280;67029;51.054;13.798;2023-08-01T02:43:57;98941.94;;;22.17;54.54
76519;BME280;67029;51.054;13.798;2023-08-01T02:46:27;98934.95;;;22.17;54.20
76519;BME280;67029;51.054;13.798;2023-08-01T02:48:57;98924.33;;;22.23;54.07
76519;BME280;67029;51.054;13.798;2023-08-01T02:51:27;98926.44;;;22.26;54.03
76519;BME280;67029;51.054;13.798;2023-08-01T02:53:57;98920.07;;;22.24;54.18
76519;BME280;67029;51.054;13.798;2023-08-01T02:56:27;98916.31;;;22.20;54.22
76519;BME280;67029;51.054;13.798;2023-08-01T02:58:57;98919.23;;;22.20;54.20
76519;BME280;67029;51.054;13.798;2023-08-01T03:01:28;98906.72;;;22.18;54.35
76519;BME280;67029;51.054;13.798;2023-08-01T03:03:57;98903.45;;;22.08;54.60
76519;BME280;67029;51.054;13.798;2023-08-01T03:06:27;98899.08;;;21.98;54.79
76519;BME280;67029;51.054;13.798;2023-08-01T03:08:57;98894.95;;;21.89;55.06
76519;BME280;67029;51.054;13.798;2023-08-01T03:11:28;98889.69;;;21.89;55.04
76519;BME280;67029;51.054;13.798;2023-08-01T03:13:58;98884.73;;;21.83;55.30
76519;BME280;67029;51.054;13.798;2023-08-01T03:16:28;98875.74;;;21.88;55.22
76519;BME280;67029;51.054;13.798;2023-08-01T03:18:58;98876.38;;;21.94;55.14
76519;BME280;67029;51.054;13.798;2023-08-01T03:21:28;98872.08;;;21.96;55.26
76519;BME280;67029;51.054;13.798;2023-08-01T03:24:00;98863.49;;;21.89;55.38
76519;BME280;67029;51.054;13.798;2023-08-01T03:26:28;98865.53;;;21.89;55.43
76519;BME280;67029;51.054;13.798;2023-08-01T03:28:58;98857.70;;;21.89;55.54
76519;BME280;67029;51.054;13.798;2023-08-01T03:31:28;98848.62;;;21.86;55.59
76519;BME280;67029;51.054;13.798;2023-08-01T03:33:58;98847.44;;;21.91;55.55
76519;BME280;67029;51.054;13.798;2023-08-01T03:36:28;98838.27;;;21.97;55.47
76519;BME280;67029;51.054;13.798;2023-08-01T03:38:58;98833.55;;;22.01;55.37
76519;BME280;67029;51.054;13.798;2023-08-01T03:41:28;98823.58;;;22.00;55.45
76519;BME280;67029;51.054;13.798;2023-08-01T03:43:58;98828.98;;;21.97;55.77
76519;BME280;67029;51.054;13.798;2023-08-01T03:46:28;98823.06;;;21.90;55.98
76519;BME280;67029;51.054;13.798;2023-08-01T03:48:58;98825.53;;;21.88;55.99
76519;BME280;67029;51.054;13.798;2023-08-01T03:51:28;98823.47;;;21.93;55.95
76519;BME280;67029;51.054;13.798;2023-08-01T03:53:58;98819.39;;;21.86;56.17
76519;BME280;67029;51.054;13.798;2023-08-01T03:56:28;98819.45;;;21.87;56.07
76519;BME280;67029;51.054;13.798;2023-08-01T03:58:58;98815.83;;;21.73;56.49
76519;BME280;67029;51.054;13.798;2023-08-01T04:01:28;98808.97;;;21.70;56.68
76519;BME280;67029;51.054;13.798;2023-08-01T04:03:58;98801.00;;;21.78;56.46
76519;BME280;67029;51.054;13.798;2023-08-01T04:06:29;98805.17;;;21.77;56.58
76519;BME280;67029;51.054;13.798;2023-08-01T04:08:59;98806.27;;;21.76;56.72
76519;BME280;67029;51.054;13.798;2023-08-01T04:11:28;98801.00;;;21.66;57.21
76519;BME280;67029;51.054;13.798;2023-08-01T04:13:59;98796.58;;;21.62;57.41
76519;BME280;67029;51.054;13.798;2023-08-01T04:16:29;98791.42;;;21.67;57.26
76519;BME280;67029;51.054;13.798;2023-08-01T04:18:59;98790.50;;;21.79;57.03
76519;BME280;67029;51.054;13.798;2023-08-01T04:21:29;98785.12;;;21.79;57.12
76519;BME280;67029;51.054;13.798;2023-08-01T04:23:59;98784.54;;;21.75;57.16
76519;BME280;67029;51.054;13.798;2023-08-01T04:26:29;98783.74;;;21.73;57.39
76519;BME280;67029;51.054;13.798;2023-08-01T04:28:59;98780.24;;;21.61;57.90
76519;BME280;67029;51.054;13.798;2023-08-01T04:31:29;98774.22;;;21.59;57.85
76519;BME280;67029;51.054;13.798;2023-08-01T04:33:59;98777.89;;;21.73;57.50
76519;BME280;67029;51.054;13.798;2023-08-01T04:36:29;98771.25;;;21.67;57.88
76519;BME280;67029;51.054;13.798;2023-08-01T04:38:59;98767.52;;;21.63;58.21
76519;BME280;67029;51.054;13.798;2023-08-01T04:41:29;98761.05;;;21.57;58.20
76519;BME280;67029;51.054;13.798;2023-08-01T04:43:59;98755.95;;;21.61;58.08
76519;BME280;67029;51.054;13.798;2023-08-01T04:46:29;98750.50;;;21.74;57.86
76519;BME280;67029;51.054;13.798;2023-08-01T04:49:00;98743.81;;;21.59;58.34
76519;BME280;67029;51.054;13.798;2023-08-01T04:51:30;98738.30;;;21.63;58.22
76519;BME280;67029;51.054;13.798;2023-08-01T04:54:00;98744.60;;;21.72;58.04
76519;BME280;67029;51.054;13.798;2023-08-01T04:56:30;98740.98;;;21.73;58.31
76519;BME280;67029;51.054;13.798;2023-08-01T04:59:00;98737.05;;;21.66;58.28
76519;BME280;67029;51.054;13.798;2023-08-01T05:01:30;98731.77;;;21.77;58.12
76519;BME280;67029;51.054;13.798;2023-08-01T05:04:00;98729.41;;;21.77;58.36
76519;BME280;67029;51.054;13.798;2023-08-01T05:06:30;98729.02;;;21.72;58.48
76519;BME280;67029;51.054;13.798;2023-08-01T05:09:00;98726.03;;;21.76;58.51
76519;BME280;67029;51.054;13.798;2023-08-01T05:11:30;98723.97;;;21.78;58.44
76519;BME280;67029;51.054;13.798;2023-08-01T05:14:00;98718.22;;;21.95;58.11
76519;BME280;67029;51.054;13.798;2023-08-01T05:16:31;98721.23;;;21.94;58.28
76519;BME280;67029;51.054;13.798;2023-08-01T05:19:01;98707.88;;;21.99;58.07
76519;BME280;67029;51.054;13.798;2023-08-01T05:21:31;98709.06;;;22.09;57.84
76519;BME280;67029;51.054;13.798;2023-08-01T05:24:01;98708.22;;;22.04;57.93
76519;BME280;67029;51.054;13.798;2023-08-01T05:26:31;98707.70;;;21.98;58.12
76519;BME280;67029;51.054;13.798;2023-08-01T05:29:01;98707.26;;;21.97;58.10
76519;BME280;67029;51.054;13.798;2023-08-01T05:31:31;98706.96;;;21.98;58.13
76519;BME280;67029;51.054;13.798;2023-08-01T05:34:01;98703.34;;;22.03;57.96
76519;BME280;67029;51.054;13.798;2023-08-01T05:36:31;98698.02;;;21.98;58.05
76519;BME280;67029;51.054;13.798;2023-08-01T05:39:02;98696.71;;;21.95;58.24
76519;BME280;67029;51.054;13.798;2023-08-01T05:41:32;98699.27;;;22.00;58.18
76519;BME280;67029;51.054;13.798;2023-08-01T05:44:02;98694.42;;;22.10;58.03
76519;BME280;67029;51.054;13.798;2023-08-01T05:46:33;98695.59;;;22.20;57.82
76519;BME280;67029;51.054;13.798;2023-08-01T05:49:03;98693.62;;;22.24;57.76
76519;BME280;67029;51.054;13.798;2023-08-01T05:51:33;98684.42;;;22.21;57.90
76519;BME280;67029;51.054;13.798;2023-08-01T05:54:03;98679.95;;;22.29;57.79
76519;BME280;67029;51.054;13.798;2023-08-01T05:56:33;98679.02;;;22.37;57.72
76519;BME280;67029;51.054;13.798;2023-08-01T05:59:03;98674.67;;;22.42;57.78
76519;BME280;67029;51.054;13.798;2023-08-01T06:01:33;98677.16;;;22.47;57.79
76519;BME280;67029;51.054;13.798;2023-08-01T06:04:03;98675.31;;;22.52;57.75
76519;BME280;67029;51.054;13.798;2023-08-01T06:06:33;98667.91;;;22.55;57.73
76519;BME280;67029;51.054;13.798;2023-08-01T06:09:03;98666.27;;;22.60;57.67
76519;BME280;67029;51.054;13.798;2023-08-01T06:11:33;98661.03;;;22.64;57.69
76519;BME280;67029;51.054;13.798;2023-08-01T06:14:03;98657.06;;;22.66;57.71
76519;BME280;67029;51.054;13.798;2023-08-01T06:16:33;98657.73;;;22.68;57.69
76519;BME280;67029;51.054;13.798;2023-08-01T06:19:03;98648.30;;;22.71;57.71
76519;BME280;67029;51.054;13.798;2023-08-01T06:21:33;98647.45;;;22.77;57.62
76519;BME280;67029;51.054;13.798;2023-08-01T06:24:04;98645.11;;;22.83;57.52
76519;BME280;67029;51.054;13.798;2023-08-01T06:26:34;98645.91;;;22.86;57.52
76519;BME280;67029;51.054;13.798;2023-08-01T06:29:04;98646.29;;;22.79;57.66
76519;BME280;67029;51.054;13.798;2023-08-01T06:31:34;98650.84;;;22.69;57.87
76519;BME280;67029;51.054;13.798;2023-08-01T06:34:04;98649.78;;;22.70;57.90
76519;BME280;67029;51.054;13.798;2023-08-01T06:36:34;98653.91;;;22.63;58.07
76519;BME280;67029;51.054;13.798;2023-08-01T06:39:04;98646.43;;;22.67;58.01
76519;BME280;67029;51.054;13.798;2023-08-01T06:41:34;98651.49;;;22.73;57.95
76519;BME280;67029;51.054;13.798;2023-08-01T06:44:04;98666.70;;;22.73;57.94
76519;BME280;67029;51.054;13.798;2023-08-01T06:46:34;98662.81;;;22.74;58.04
76519;BME280;67029;51.054;13.798;2023-08-01T06:49:04;98663.99;;;22.74;58.00
76519;BME280;67029;51.054;13.798;2023-08-01T06:51:34;98659.84;;;22.72;58.11
76519;BME280;67029;51.054;13.798;2023-08-01T06:54:04;98657.31;;;22.72;58.06
76519;BME280;67029;51.054;13.798;2023-08-01T06:56:34;98649.12;;;22.77;57.98
76519;BME280;67029;51.054;13.798;2023-08-01T06:59:04;98647.25;;;22.81;57.93
76519;BME280;67029;51.054;13.798;2023-08-01T07:01:34;98642.62;;;22.88;57.82
76519;BME280;67029;51.054;13.798;2023-08-01T07:04:04;98647.00;;;22.94;57.75
76519;BME280;67029;51.054;13.798;2023-08-01T07:06:34;98649.15;;;22.97;57.68
76519;BME280;67029;51.054;13.798;2023-08-01T07:09:04;98648.01;;;23.03;57.62
76519;BME280;67029;51.054;13.798;2023-08-01T07:11:34;98647.99;;;23.00;57.67
76519;BME280;67029;51.054;13.798;2023-08-01T07:14:04;98650.03;;;22.96;57.77
76519;BME280;67029;51.054;13.798;2023-08-01T07:16:34;98653.91;;;22.89;58.09
76519;BME280;67029;51.054;13.798;2023-08-01T07:19:04;98653.84;;;22.84;58.17
76519;BME280;67029;51.054;13.798;2023-08-01T07:21:34;98650.80;;;22.83;58.21
76519;BME280;67029;51.054;13.798;2023-08-01T07:24:04;98645.42;;;22.82;58.31
76519;BME280;67029;51.054;13.798;2023-08-01T07:26:34;98641.61;;;22.91;58.22
76519;BME280;67029;51.054;13.798;2023-08-01T07:29:04;98645.25;;;22.98;58.19
76519;BME280;67029;51.054;13.798;2023-08-01T07:31:35;98644.89;;;23.05;58.03
76519;BME280;67029;51.054;13.798;2023-08-01T07:34:05;98643.28;;;23.19;57.86
76519;BME280;67029;51.054;13.798;2023-08-01T07:36:35;98642.11;;;23.29;57.75
76519;BME280;67029;51.054;13.798;2023-08-01T07:39:05;98643.56;;;23.39;57.58
76519;BME280;67029;51.054;13.798;2023-08-01T07:41:35;98643.19;;;23.44;57.46
76519;BME280;67029;51.054;13.798;2023-08-01T07:44:05;98644.51;;;23.45;57.48
76519;BME280;67029;51.054;13.798;2023-08-01T07:46:35;98651.44;;;23.51;57.30
76519;BME280;67029;51.054;13.798;2023-08-01T07:49:05;98647.84;;;23.50;57.25
76519;BME280;67029;51.054;13.798;2023-08-01T07:51:35;98645.98;;;23.52;57.28
76519;BME280;67029;51.054;13.798;2023-08-01T07:54:05;98640.16;;;23.47;57.12
76519;BME280;67029;51.054;13.798;2023-08-01T07:56:35;98638.28;;;23.52;57.06
76519;BME280;67029;51.054;13.798;2023-08-01T07:59:05;98637.86;;;23.61;56.87
76519;BME280;67029;51.054;13.798;2023-08-01T08:01:35;98647.02;;;23.68;56.64
76519;BME280;67029;51.054;13.798;2023-08-01T08:04:05;98642.81;;;23.65;56.73
76519;BME280;67029;51.054;13.798;2023-08-01T08:06:35;98653.52;;;23.74;56.53
76519;BME280;67029;51.054;13.798;2023-08-01T08:09:05;98642.02;;;23.76;56.43
76519;BME280;67029;51.054;13.798;2023-08-01T08:11:35;98647.53;;;23.75;56.30
76519;BME280;67029;51.054;13.798;2023-08-01T08:14:05;98648.34;;;23.77;56.28
76519;BME280;67029;51.054;13.798;2023-08-01T08:16:35;98648.55;;;23.86;56.10
76519;BME280;67029;51.054;13.798;2023-08-01T08:19:05;98640.14;;;23.92;55.77
76519;BME280;67029;51.054;13.798;2023-08-01T08:21:35;98639.99;;;23.99;55.63
76519;BME280;67029;51.054;13.798;2023-08-01T08:24:05;98631.84;;;24.04;55.52
76519;BME280;67029;51.054;13.798;2023-08-01T08:26:36;98627.89;;;24.16;55.39
76519;BME280;67029;51.054;13.798;2023-08-01T08:29:05;98629.70;;;24.33;55.29
76519;BME280;67029;51.054;13.798;2023-08-01T08:31:35;98629.23;;;24.45;54.95
76519;BME280;67029;51.054;13.798;2023-08-01T08:34:05;98617.10;;;24.52;54.60
76519;BME280;67029;51.054;13.798;2023-08-01T08:36:35;98618.05;;;24.58;54.52
76519;BME280;67029;51.054;13.798;2023-08-01T08:39:06;98608.29;;;24.65;54.20
76519;BME280;67029;51.054;13.798;2023-08-01T08:41:38;98610.24;;;24.68;53.64
76519;BME280;67029;51.054;13.798;2023-08-01T08:44:07;98613.00;;;24.77;53.56
76519;BME280;67029;51.054;13.798;2023-08-01T08:46:41;98612.90;;;24.87;53.53
76519;BME280;67029;51.054;13.798;2023-08-01T08:49:08;98615.16;;;24.97;53.38
76519;BME280;67029;51.054;13.798;2023-08-01T08:51:38;98618.95;;;25.01;52.55
76519;BME280;67029;51.054;13.798;2023-08-01T08:54:08;98616.14;;;25.07;52.68
76519;BME280;67029;51.054;13.798;2023-08-01T08:56:38;98626.84;;;25.16;52.33
76519;BME280;67029;51.054;13.798;2023-08-01T08:59:09;98634.95;;;25.06;51.61
76519;BME280;67029;51.054;13.798;2023-08-01T09:01:39;98632.03;;;24.97;52.13
76519;BME280;67029;51.054;13.798;2023-08-01T09:04:09;98610.50;;;24.93;52.18
76519;BME280;67029;51.054;13.798;2023-08-01T09:06:46;98620.81;;;25.03;51.72
76519;BME280;67029;51.054;13.798;2023-08-01T09:09:11;98604.45;;;25.03;51.91
76519;BME280;67029;51.054;13.798;2023-08-01T09:11:44;98608.13;;;25.07;51.93
76519;BME280;67029;51.054;13.798;2023-08-01T09:14:12;98599.81;;;25.05;51.67
76519;BME280;67029;51.054;13.798;2023-08-01T09:16:43;98577.38;;;25.04;51.29
76519;BME280;67029;51.054;13.798;2023-08-01T09:19:21;98585.57;;;25.00;51.10
76519;BME280;67029;51.054;13.798;2023-08-01T09:21:45;98584.83;;;24.96;51.28
76519;BME280;67029;51.054;13.798;2023-08-01T09:24:19;98577.04;;;24.89;51.49
76519;BME280;67029;51.054;13.798;2023-08-01T09:26:46;98592.30;;;24.79;51.49
76519;BME280;67029;51.054;13.798;2023-08-01T09:29:16;98582.48;;;24.77;51.76
76519;BME280;67029;51.054;13.798;2023-08-01T09:31:45;98584.67;;;24.76;51.96
76519;BME280;67029;51.054;13.798;2023-08-01T09:34:19;98569.62;;;24.70;51.90
76519;BME280;67029;51.054;13.798;2023-08-01T09:36:47;98573.48;;;24.66;51.64
76519;BME280;67029;51.054;13.798;2023-08-01T09:39:19;98526.53;;;24.53;51.70
76519;BME280;67029;51.054;13.798;2023-08-01T09:42:01;98517.74;;;24.35;51.58
76519;BME280;67029;51.054;13.798;2023-08-01T09:44:18;98552.79;;;24.31;51.68
76519;BME280;67029;51.054;13.798;2023-08-01T09:47:05;98573.36;;;24.24;51.55
76519;BME280;67029;51.054;13.798;2023-08-01T09:49:20;98579.97;;;24.20;51.51
76519;BME280;67029;51.054;13.798;2023-08-01T09:51:50;98548.47;;;24.22;51.49
76519;BME280;67029;51.054;13.798;2023-08-01T09:54:21;98545.66;;;24.26;51.41
76519;BME280;67029;51.054;13.798;2023-08-01T09:56:52;98537.39;;;24.32;51.36
76519;BME280;67029;51.054;13.798;2023-08-01T09:59:25;98534.20;;;24.39;51.26
76519;BME280;67029;51.054;13.798;2023-08-01T10:01:53;98530.57;;;24.38;50.85
76519;BME280;67029;51.054;13.798;2023-08-01T10:04:32;98543.00;;;24.35;50.99
76519;BME280;67029;51.054;13.798;2023-08-01T10:06:58;98556.03;;;24.38;50.87
76519;BME280;67029;51.054;13.798;2023-08-01T10:09:22;98542.62;;;24.42;50.93
76519;BME280;67029;51.054;13.798;2023-08-01T10:11:56;98560.26;;;24.48;50.68
76519;BME280;67029;51.054;13.798;2023-08-01T10:14:25;98556.87;;;24.44;50.32
76519;BME280;67029;51.054;13.798;2023-08-01T10:16:54;98558.53;;;24.44;50.22
76519;BME280;67029;51.054;13.798;2023-08-01T10:19:25;98564.03;;;24.46;50.20
76519;BME280;67029;51.054;13.798;2023-08-01T10:21:56;98571.22;;;24.53;50.21
76519;BME280;67029;51.054;13.798;2023-08-01T10:24:28;98570.53;;;24.55;49.91
76519;BME280;67029;51.054;13.798;2023-08-01T10:26:56;98564.69;;;24.58;50.04
76519;BME280;67029;51.054;13.798;2023-08-01T10:29:36;98573.62;;;24.68;49.40
76519;BME280;67029;51.054;13.798;2023-08-01T10:31:59;98588.31;;;24.68;49.23
76519;BME280;67029;51.054;13.798;2023-08-01T10:34:27;98583.86;;;24.73;49.24
76519;BME280;67029;51.054;13.798;2023-08-01T10:36:58;98602.38;;;24.78;49.24
76519;BME280;67029;51.054;13.798;2023-08-01T10:39:28;98600.52;;;24.87;48.92
76519;BME280;67029;51.054;13.798;2023-08-01T10:41:59;98606.31;;;24.95;49.15
76519;BME280;67029;51.054;13.798;2023-08-01T10:44:29;98613.30;;;25.01;48.73
76519;BME280;67029;51.054;13.798;2023-08-01T10:47:01;98611.51;;;25.17;47.94
76519;BME280;67029;51.054;13.798;2023-08-01T10:49:43;98615.40;;;25.36;47.79
76519;BME280;67029;51.054;13.798;2023-08-01T10:52:01;98604.55;;;25.53;47.47
76519;BME280;67029;51.054;13.798;2023-08-01T10:54:31;98585.71;;;25.73;47.19
76519;BME280;67029;51.054;13.798;2023-08-01T10:57:01;98586.86;;;25.94;46.78
76519;BME280;67029;51.054;13.798;2023-08-01T10:59:31;98579.16;;;26.11;46.55
76519;BME280;67029;51.054;13.798;2023-08-01T11:02:01;98573.70;;;26.27;46.50
76519;BME280;67029;51.054;13.798;2023-08-01T11:04:31;98576.57;;;26.43;45.52
76519;BME280;67029;51.054;13.798;2023-08-01T11:07:03;98580.20;;;26.54;44.78
76519;BME280;67029;51.054;13.798;2023-08-01T11:09:32;98583.79;;;26.60;45.36
76519;BME280;67029;51.054;13.798;2023-08-01T11:12:02;98594.01;;;26.73;45.29
76519;BME280;67029;51.054;13.798;2023-08-01T11:14:32;98575.40;;;26.85;44.14
76519;BME280;67029;51.054;13.798;2023-08-01T11:17:03;98582.00;;;26.89;44.19
76519;BME280;67029;51.054;13.798;2023-08-01T11:19:33;98579.25;;;26.92;44.10
76519;BME280;67029;51.054;13.798;2023-08-01T11:22:09;98594.39;;;26.95;43.91
76519;BME280;67029;51.054;13.798;2023-08-01T11:24:33;98575.45;;;27.00;43.67
76519;BME280;67029;51.054;13.798;2023-08-01T11:27:04;98576.34;;;27.07;43.22
76519;BME280;67029;51.054;13.798;2023-08-01T11:29:38;98587.24;;;27.15;43.13
76519;BME280;67029;51.054;13.798;2023-08-01T11:32:04;98595.52;;;27.29;43.28
76519;BME280;67029;51.054;13.798;2023-08-01T11:34:41;98587.26;;;27.36;42.82
76519;BME280;67029;51.054;13.798;2023-08-01T11:37:05;98597.84;;;27.47;43.29
76519;BME280;67029;51.054;13.798;2023-08-01T11:39:35;98593.27;;;27.66;42.86
76519;BME280;67029;51.054;13.798;2023-08-01T11:42:06;98609.64;;;27.73;42.22
76519;BME280;67029;51.054;13.798;2023-08-01T11:44:36;98611.02;;;27.74;42.07
76519;BME280;67029;51.054;13.798;2023-08-01T11:47:10;98600.44;;;27.85;42.25
76519;BME280;67029;51.054;13.798;2023-08-01T11:49:36;98607.30;;;27.88;42.14
76519;BME280;67029;51.054;13.798;2023-08-01T11:52:07;98616.03;;;27.92;41.84
76519;BME280;67029;51.054;13.798;2023-08-01T11:54:46;98599.70;;;27.90;41.86
76519;BME280;67029;51.054;13.798;2023-08-01T11:59:46;98589.23;;;27.98;42.05
76519;BME280;67029;51.054;13.798;2023-08-01T12:02:08;98578.44;;;28.08;41.81
76519;BME280;67029;51.054;13.798;2023-08-01T12:04:38;98613.23;;;27.97;41.63
76519;BME280;67029;51.054;13.798;2023-08-01T12:07:14;98605.19;;;27.85;40.86
76519;BME280;67029;51.054;13.798;2023-08-01T12:09:39;98611.23;;;27.52;41.78
76519;BME280;67029;51.054;13.798;2023-08-01T12:12:09;98621.42;;;27.34;41.92
76519;BME280;67029;51.054;13.798;2023-08-01T12:14:40;98618.93;;;27.08;42.69
76519;BME280;67029;51.054;13.798;2023-08-01T12:17:10;98633.45;;;26.93;43.09
76519;BME280;67029;51.054;13.798;2023-08-01T12:19:40;98648.09;;;26.64;43.77
76519;BME280;67029;51.054;13.798;2023-08-01T12:22:10;98656.39;;;26.25;45.27
76519;BME280;67029;51.054;13.798;2023-08-01T12:24:40;98657.53;;;25.88;46.03
76519;BME280;67029;51.054;13.798;2023-08-01T12:27:11;98662.41;;;25.61;46.98
76519;BME280;67029;51.054;13.798;2023-08-01T12:29:41;98657.02;;;25.53;46.88
76519;BME280;67029;51.054;13.798;2023-08-01T12:32:11;98677.08;;;25.43;47.34
76519;BME280;67029;51.054;13.798;2023-08-01T12:34:41;98676.69;;;25.25;47.81
76519;BME280;67029;51.054;13.798;2023-08-01T12:37:11;98676.97;;;24.94;48.65
76519;BME280;67029;51.054;13.798;2023-08-01T12:39:41;98687.41;;;24.53;49.67
76519;BME280;67029;51.054;13.798;2023-08-01T12:42:11;98710.45;;;24.28;50.50
76519;BME280;67029;51.054;13.798;2023-08-01T12:44:41;98717.16;;;24.19;50.67
76519;BME280;67029;51.054;13.798;2023-08-01T12:47:11;98709.08;;;24.03;51.02
76519;BME280;67029;51.054;13.798;2023-08-01T12:49:41;98723.15;;;23.77;51.93
76519;BME280;67029;51.054;13.798;2023-08-01T12:52:22;98727.91;;;23.69;52.60
76519;BME280;67029;51.054;13.798;2023-08-01T12:54:41;98737.70;;;23.61;52.72
76519;BME280;67029;51.054;13.798;2023-08-01T12:57:11;98737.38;;;23.57;52.75
76519;BME280;67029;51.054;13.798;2023-08-01T12:59:41;98738.64;;;23.56;52.76
76519;BME280;67029;51.054;13.798;2023-08-01T13:02:12;98741.37;;;23.55;53.10
76519;BME280;67029;51.054;13.798;2023-08-01T13:04:42;98741.39;;;23.35;53.94
76519;BME280;67029;51.054;13.798;2023-08-01T13:07:12;98739.84;;;23.28;54.35